sensor_id;sensor_type;location;lat;lon;timestamp;P1;durP1;ratioP1;P2;durP2;ratioP2
38226;SDS011;24026;49.446;8.576;2023-02-01T00:00:36;117.63;;;104.82;;
38226;SDS011;24026;49.446;8.576;2023-02-01T00:02:56;117.32;;;104.50;;
38226;SDS011;24026;49.446;8.576;2023-02-01T00:05:16;116.45;;;103.75;;
38226;SDS011;24026;49.446;8.576;2023-02-01T00:07:37;118.97;;;106.07;;
38226;SDS011;24026;49.446;8.576;2023-02-01T00:09:57;118.63;;;105.72;;
38226;SDS011;24026;49.446;8.576;2023-02-01T00:12:18;118.70;;;105.88;;
38226;SDS011;24026;49.446;8.576;2023-02-01T00:14:40;117.05;;;104.25;;
38226;SDS011;24026;49.446;8.576;2023-02-01T00:17:00;117.45;;;104.65;;
38226;SDS011;24026;49.446;8.576;2023-02-01T00:19:22;117.20;;;104.47;;
38226;SDS011;24026;49.446;8.576;2023-02-01T00:21:42;118.78;;;105.90;;
38226;SDS011;24026;49.446;8.576;2023-02-01T00:24:04;118.60;;;105.72;;
38226;SDS011;24026;49.446;8.576;2023-02-01T00:26:27;117.05;;;104.30;;
38226;SDS011;24026;49.446;8.576;2023-02-01T00:28:52;117.95;;;105.13;;
38226;SDS011;24026;49.446;8.576;2023-02-01T00:31:13;118.32;;;105.55;;
38226;SDS011;24026;49.446;8.576;2023-02-01T00:33:34;118.30;;;105.40;;
38226;SDS011;24026;49.446;8.576;2023-02-01T00:36:00;117.68;;;104.90;;
38226;SDS011;24026;49.446;8.576;2023-02-01T00:40:42;116.10;;;103.30;;
38226;SDS011;24026;49.446;8.576;2023-02-01T00:43:02;117.55;;;104.78;;
38226;SDS011;24026;49.446;8.576;2023-02-01T00:45:23;117.57;;;104.72;;
38226;SDS011;24026;49.446;8.576;2023-02-01T00:47:45;118.47;;;105.53;;
38226;SDS011;24026;49.446;8.576;2023-02-01T00:50:05;117.55;;;104.68;;
38226;SDS011;24026;49.446;8.576;2023-02-01T00:52:26;118.88;;;105.93;;
38226;SDS011;24026;49.446;8.576;2023-02-01T00:54:46;117.38;;;104.63;;
38226;SDS011;24026;49.446;8.576;2023-02-01T00:57:06;117.10;;;104.32;;
38226;SDS011;24026;49.446;8.576;2023-02-01T00:59:27;118.03;;;105.20;;
38226;SDS011;24026;49.446;8.576;2023-02-01T01:01:47;117.78;;;104.95;;
38226;SDS011;24026;49.446;8.576;2023-02-01T01:04:08;117.93;;;105.13;;
38226;SDS011;24026;49.446;8.576;2023-02-01T01:06:30;118.28;;;105.45;;
38226;SDS011;24026;49.446;8.576;2023-02-01T01:08:52;117.30;;;104.50;;
38226;SDS011;24026;49.446;8.576;2023-02-01T01:11:18;116.88;;;104.18;;
38226;SDS011;24026;49.446;8.576;2023-02-01T01:13:41;117.55;;;104.78;;
38226;SDS011;24026;49.446;8.576;2023-02-01T01:16:02;118.18;;;105.28;;
38226;SDS011;24026;49.446;8.576;2023-02-01T01:18:25;116.38;;;103.70;;
38226;SDS011;24026;49.446;8.576;2023-02-01T01:20:47;117.32;;;104.35;;
38226;SDS011;24026;49.446;8.576;2023-02-01T01:23:09;117.47;;;104.70;;
38226;SDS011;24026;49.446;8.576;2023-02-01T01:25:30;118.50;;;105.63;;
38226;SDS011;24026;49.446;8.576;2023-02-01T01:27:51;118.10;;;105.30;;
38226;SDS011;24026;49.446;8.576;2023-02-01T01:30:11;116.90;;;104.13;;
38226;SDS011;24026;49.446;8.576;2023-02-01T01:32:32;116.65;;;103.93;;
38226;SDS011;24026;49.446;8.576;2023-02-01T01:34:52;117.32;;;104.60;;
38226;SDS011;24026;49.446;8.576;2023-02-01T01:37:14;119.32;;;106.45;;
38226;SDS011;24026;49.446;8.576;2023-02-01T01:39:34;116.90;;;104.18;;
38226;SDS011;24026;49.446;8.576;2023-02-01T01:41:55;118.90;;;105.90;;
38226;SDS011;24026;49.446;8.576;2023-02-01T01:47:13;115.90;;;103.15;;
38226;SDS011;24026;49.446;8.576;2023-02-01T01:49:35;116.70;;;104.00;;
38226;SDS011;24026;49.446;8.576;2023-02-01T01:51:59;117.22;;;104.43;;
38226;SDS011;24026;49.446;8.576;2023-02-01T01:54:26;118.13;;;105.30;;
38226;SDS011;24026;49.446;8.576;2023-02-01T01:56:52;118.88;;;105.97;;
38226;SDS011;24026;49.446;8.576;2023-02-01T01:59:17;118.07;;;105.28;;
38226;SDS011;24026;49.446;8.576;2023-02-01T02:01:37;118.28;;;105.47;;
38226;SDS011;24026;49.446;8.576;2023-02-01T02:03:58;116.35;;;103.63;;
38226;SDS011;24026;49.446;8.576;2023-02-01T02:06:26;117.15;;;104.45;;
38226;SDS011;24026;49.446;8.576;2023-02-01T02:09:13;115.83;;;103.13;;
38226;SDS011;24026;49.446;8.576;2023-02-01T02:11:34;117.60;;;104.78;;
38226;SDS011;24026;49.446;8.576;2023-02-01T02:13:55;118.50;;;105.68;;
38226;SDS011;24026;49.446;8.576;2023-02-01T02:24:04;117.25;;;104.53;;
38226;SDS011;24026;49.446;8.576;2023-02-01T02:34:46;116.80;;;104.07;;
38226;SDS011;24026;49.446;8.576;2023-02-01T02:40:31;115.88;;;103.18;;
38226;SDS011;24026;49.446;8.576;2023-02-01T02:43:45;116.70;;;103.90;;
38226;SDS011;24026;49.446;8.576;2023-02-01T02:46:24;116.00;;;103.28;;
38226;SDS011;24026;49.446;8.576;2023-02-01T02:49:11;116.07;;;103.33;;
38226;SDS011;24026;49.446;8.576;2023-02-01T02:51:50;117.20;;;104.43;;
38226;SDS011;24026;49.446;8.576;2023-02-01T02:54:35;117.68;;;104.78;;
38226;SDS011;24026;49.446;8.576;2023-02-01T02:57:07;117.03;;;104.25;;
38226;SDS011;24026;49.446;8.576;2023-02-01T02:59:50;116.18;;;103.50;;
38226;SDS011;24026;49.446;8.576;2023-02-01T03:02:31;116.78;;;103.95;;
38226;SDS011;24026;49.446;8.576;2023-02-01T03:05:12;117.88;;;105.07;;
38226;SDS011;24026;49.446;8.576;2023-02-01T03:13:08;116.53;;;103.78;;
38226;SDS011;24026;49.446;8.576;2023-02-01T03:15:38;116.22;;;103.47;;
38226;SDS011;24026;49.446;8.576;2023-02-01T03:18:13;117.57;;;104.75;;
38226;SDS011;24026;49.446;8.576;2023-02-01T03:20:39;116.30;;;103.55;;
38226;SDS011;24026;49.446;8.576;2023-02-01T03:23:02;116.35;;;103.70;;
38226;SDS011;24026;49.446;8.576;2023-02-01T03:25:27;118.30;;;105.43;;
38226;SDS011;24026;49.446;8.576;2023-02-01T03:27:56;116.75;;;103.95;;
38226;SDS011;24026;49.446;8.576;2023-02-01T03:30:22;115.88;;;103.22;;
38226;SDS011;24026;49.446;8.576;2023-02-01T03:32:47;116.55;;;103.80;;
38226;SDS011;24026;49.446;8.576;2023-02-01T03:38:20;115.40;;;102.70;;
38226;SDS011;24026;49.446;8.576;2023-02-01T03:40:46;116.40;;;103.72;;
38226;SDS011;24026;49.446;8.576;2023-02-01T03:43:14;117.90;;;105.07;;
38226;SDS011;24026;49.446;8.576;2023-02-01T03:45:39;117.28;;;104.53;;
38226;SDS011;24026;49.446;8.576;2023-02-01T03:48:03;116.47;;;103.78;;
38226;SDS011;24026;49.446;8.576;2023-02-01T03:50:26;117.07;;;104.25;;
38226;SDS011;24026;49.446;8.576;2023-02-01T03:52:51;117.28;;;104.47;;
38226;SDS011;24026;49.446;8.576;2023-02-01T03:55:15;117.57;;;104.68;;
38226;SDS011;24026;49.446;8.576;2023-02-01T03:57:39;116.32;;;103.57;;
38226;SDS011;24026;49.446;8.576;2023-02-01T04:00:05;116.47;;;103.75;;
38226;SDS011;24026;49.446;8.576;2023-02-01T04:02:36;116.95;;;104.22;;
38226;SDS011;24026;49.446;8.576;2023-02-01T04:04:56;117.28;;;104.47;;
38226;SDS011;24026;49.446;8.576;2023-02-01T04:07:17;117.28;;;104.45;;
38226;SDS011;24026;49.446;8.576;2023-02-01T04:09:37;116.43;;;103.65;;
38226;SDS011;24026;49.446;8.576;2023-02-01T04:11:57;117.57;;;104.82;;
38226;SDS011;24026;49.446;8.576;2023-02-01T04:14:18;117.13;;;104.40;;
38226;SDS011;24026;49.446;8.576;2023-02-01T04:16:38;117.30;;;104.47;;
38226;SDS011;24026;49.446;8.576;2023-02-01T04:18:59;117.45;;;104.68;;
38226;SDS011;24026;49.446;8.576;2023-02-01T04:21:19;117.13;;;104.35;;
38226;SDS011;24026;49.446;8.576;2023-02-01T04:23:40;117.28;;;104.47;;
38226;SDS011;24026;49.446;8.576;2023-02-01T04:26:00;118.35;;;105.38;;
38226;SDS011;24026;49.446;8.576;2023-02-01T04:28:22;118.22;;;105.43;;
38226;SDS011;24026;49.446;8.576;2023-02-01T04:30:43;116.95;;;104.20;;
38226;SDS011;24026;49.446;8.576;2023-02-01T04:33:07;116.82;;;104.07;;
38226;SDS011;24026;49.446;8.576;2023-02-01T04:35:29;118.13;;;105.22;;
38226;SDS011;24026;49.446;8.576;2023-02-01T04:37:49;118.15;;;105.40;;
38226;SDS011;24026;49.446;8.576;2023-02-01T04:40:12;116.90;;;104.15;;
38226;SDS011;24026;49.446;8.576;2023-02-01T04:42:32;117.78;;;104.97;;
38226;SDS011;24026;49.446;8.576;2023-02-01T04:44:53;118.22;;;105.38;;
38226;SDS011;24026;49.446;8.576;2023-02-01T04:47:13;117.95;;;105.13;;
38226;SDS011;24026;49.446;8.576;2023-02-01T04:49:35;117.60;;;104.82;;
38226;SDS011;24026;49.446;8.576;2023-02-01T04:51:55;117.60;;;104.80;;
38226;SDS011;24026;49.446;8.576;2023-02-01T04:54:16;118.43;;;105.53;;
38226;SDS011;24026;49.446;8.576;2023-02-01T04:56:37;118.32;;;105.38;;
38226;SDS011;24026;49.446;8.576;2023-02-01T04:58:57;118.82;;;105.93;;
38226;SDS011;24026;49.446;8.576;2023-02-01T05:01:18;116.55;;;103.88;;
38226;SDS011;24026;49.446;8.576;2023-02-01T05:03:39;117.25;;;104.53;;
38226;SDS011;24026;49.446;8.576;2023-02-01T05:06:00;117.65;;;104.88;;
38226;SDS011;24026;49.446;8.576;2023-02-01T05:08:21;119.32;;;106.47;;
38226;SDS011;24026;49.446;8.576;2023-02-01T05:10:42;118.40;;;105.53;;
38226;SDS011;24026;49.446;8.576;2023-02-01T05:13:07;119.25;;;106.03;;
38226;SDS011;24026;49.446;8.576;2023-02-01T05:15:46;118.65;;;105.75;;
38226;SDS011;24026;49.446;8.576;2023-02-01T05:18:07;119.97;;;106.82;;
38226;SDS011;24026;49.446;8.576;2023-02-01T05:20:27;119.38;;;106.55;;
38226;SDS011;24026;49.446;8.576;2023-02-01T05:22:48;119.28;;;106.45;;
38226;SDS011;24026;49.446;8.576;2023-02-01T05:25:08;120.20;;;107.25;;
38226;SDS011;24026;49.446;8.576;2023-02-01T05:27:29;120.38;;;107.47;;
38226;SDS011;24026;49.446;8.576;2023-02-01T05:29:50;122.07;;;109.05;;
38226;SDS011;24026;49.446;8.576;2023-02-01T05:32:12;121.32;;;108.28;;
38226;SDS011;24026;49.446;8.576;2023-02-01T05:34:32;121.25;;;108.35;;
38226;SDS011;24026;49.446;8.576;2023-02-01T05:36:53;122.53;;;109.45;;
38226;SDS011;24026;49.446;8.576;2023-02-01T05:39:14;121.72;;;108.82;;
38226;SDS011;24026;49.446;8.576;2023-02-01T05:41:35;122.35;;;109.40;;
38226;SDS011;24026;49.446;8.576;2023-02-01T05:43:56;121.63;;;108.78;;
38226;SDS011;24026;49.446;8.576;2023-02-01T05:46:16;122.65;;;109.68;;
38226;SDS011;24026;49.446;8.576;2023-02-01T05:48:37;122.93;;;109.93;;
38226;SDS011;24026;49.446;8.576;2023-02-01T05:50:57;122.47;;;109.50;;
38226;SDS011;24026;49.446;8.576;2023-02-01T05:53:17;122.75;;;109.78;;
38226;SDS011;24026;49.446;8.576;2023-02-01T05:55:38;122.97;;;110.07;;
38226;SDS011;24026;49.446;8.576;2023-02-01T05:57:59;123.82;;;110.78;;
38226;SDS011;24026;49.446;8.576;2023-02-01T06:00:19;125.65;;;112.40;;
38226;SDS011;24026;49.446;8.576;2023-02-01T06:02:40;123.45;;;110.50;;
38226;SDS011;24026;49.446;8.576;2023-02-01T06:05:01;125.45;;;112.28;;
38226;SDS011;24026;49.446;8.576;2023-02-01T06:07:22;125.95;;;112.78;;
38226;SDS011;24026;49.446;8.576;2023-02-01T06:09:43;127.00;;;113.70;;
38226;SDS011;24026;49.446;8.576;2023-02-01T06:12:05;126.72;;;113.43;;
38226;SDS011;24026;49.446;8.576;2023-02-01T06:14:27;126.40;;;113.22;;
38226;SDS011;24026;49.446;8.576;2023-02-01T06:16:48;126.68;;;113.20;;
38226;SDS011;24026;49.446;8.576;2023-02-01T06:19:09;128.20;;;114.75;;
38226;SDS011;24026;49.446;8.576;2023-02-01T06:21:29;140.20;;;121.53;;
38226;SDS011;24026;49.446;8.576;2023-02-01T06:23:53;134.68;;;120.05;;
38226;SDS011;24026;49.446;8.576;2023-02-01T06:26:16;132.35;;;117.80;;
38226;SDS011;24026;49.446;8.576;2023-02-01T06:28:39;132.35;;;117.30;;
38226;SDS011;24026;49.446;8.576;2023-02-01T06:31:05;131.60;;;117.35;;
38226;SDS011;24026;49.446;8.576;2023-02-01T06:33:26;139.43;;;118.70;;
38226;SDS011;24026;49.446;8.576;2023-02-01T06:36:02;136.32;;;119.50;;
38226;SDS011;24026;49.446;8.576;2023-02-01T06:38:25;158.48;;;139.75;;
38226;SDS011;24026;49.446;8.576;2023-02-01T06:40:51;172.07;;;153.65;;
38226;SDS011;24026;49.446;8.576;2023-02-01T06:43:18;264.45;;;237.70;;
38226;SDS011;24026;49.446;8.576;2023-02-01T06:45:39;414.58;;;373.27;;
38226;SDS011;24026;49.446;8.576;2023-02-01T06:48:02;374.60;;;337.52;;
38226;SDS011;24026;49.446;8.576;2023-02-01T06:50:24;210.43;;;188.68;;
38226;SDS011;24026;49.446;8.576;2023-02-01T06:52:45;214.20;;;192.70;;
38226;SDS011;24026;49.446;8.576;2023-02-01T06:55:06;195.57;;;175.63;;
38226;SDS011;24026;49.446;8.576;2023-02-01T06:57:29;173.77;;;155.40;;
38226;SDS011;24026;49.446;8.576;2023-02-01T06:59:53;168.05;;;150.18;;
38226;SDS011;24026;49.446;8.576;2023-02-01T07:02:15;164.13;;;147.10;;
38226;SDS011;24026;49.446;8.576;2023-02-01T07:04:37;154.45;;;138.27;;
38226;SDS011;24026;49.446;8.576;2023-02-01T07:06:58;158.68;;;141.77;;
38226;SDS011;24026;49.446;8.576;2023-02-01T07:09:18;151.65;;;135.75;;
38226;SDS011;24026;49.446;8.576;2023-02-01T07:11:39;148.43;;;133.02;;
38226;SDS011;24026;49.446;8.576;2023-02-01T07:14:03;147.75;;;132.45;;
38226;SDS011;24026;49.446;8.576;2023-02-01T07:16:24;144.57;;;129.85;;
38226;SDS011;24026;49.446;8.576;2023-02-01T07:18:45;143.23;;;128.13;;
38226;SDS011;24026;49.446;8.576;2023-02-01T07:21:07;143.63;;;128.40;;
38226;SDS011;24026;49.446;8.576;2023-02-01T07:23:29;147.30;;;132.30;;
38226;SDS011;24026;49.446;8.576;2023-02-01T07:25:58;145.73;;;130.63;;
38226;SDS011;24026;49.446;8.576;2023-02-01T07:28:21;184.68;;;165.73;;
38226;SDS011;24026;49.446;8.576;2023-02-01T07:30:43;300.02;;;271.92;;
38226;SDS011;24026;49.446;8.576;2023-02-01T07:33:10;263.65;;;237.73;;
38226;SDS011;24026;49.446;8.576;2023-02-01T07:35:45;213.88;;;192.63;;
38226;SDS011;24026;49.446;8.576;2023-02-01T07:38:07;173.70;;;155.63;;
38226;SDS011;24026;49.446;8.576;2023-02-01T07:40:29;170.57;;;152.52;;
38226;SDS011;24026;49.446;8.576;2023-02-01T07:42:51;163.55;;;145.63;;
38226;SDS011;24026;49.446;8.576;2023-02-01T07:45:12;295.42;;;264.70;;
38226;SDS011;24026;49.446;8.576;2023-02-01T07:47:36;205.40;;;184.13;;
38226;SDS011;24026;49.446;8.576;2023-02-01T07:49:57;309.60;;;278.35;;
38226;SDS011;24026;49.446;8.576;2023-02-01T07:52:17;211.35;;;189.07;;
38226;SDS011;24026;49.446;8.576;2023-02-01T07:54:39;205.70;;;184.15;;
38226;SDS011;24026;49.446;8.576;2023-02-01T07:57:00;182.50;;;163.40;;
38226;SDS011;24026;49.446;8.576;2023-02-01T07:59:20;171.75;;;153.15;;
38226;SDS011;24026;49.446;8.576;2023-02-01T08:01:42;168.90;;;151.13;;
38226;SDS011;24026;49.446;8.576;2023-02-01T08:04:04;172.38;;;152.23;;
38226;SDS011;24026;49.446;8.576;2023-02-01T08:06:26;162.63;;;144.93;;
38226;SDS011;24026;49.446;8.576;2023-02-01T08:08:49;165.38;;;147.48;;
38226;SDS011;24026;49.446;8.576;2023-02-01T08:11:11;166.32;;;148.02;;
38226;SDS011;24026;49.446;8.576;2023-02-01T08:13:34;168.13;;;150.07;;
38226;SDS011;24026;49.446;8.576;2023-02-01T08:15:59;163.02;;;145.18;;
38226;SDS011;24026;49.446;8.576;2023-02-01T08:18:22;163.27;;;145.48;;
38226;SDS011;24026;49.446;8.576;2023-02-01T08:20:44;160.35;;;143.20;;
38226;SDS011;24026;49.446;8.576;2023-02-01T08:23:07;162.48;;;143.93;;
38226;SDS011;24026;49.446;8.576;2023-02-01T08:25:31;166.65;;;144.75;;
38226;SDS011;24026;49.446;8.576;2023-02-01T08:27:53;162.20;;;145.05;;
38226;SDS011;24026;49.446;8.576;2023-02-01T08:30:16;179.13;;;160.25;;
38226;SDS011;24026;49.446;8.576;2023-02-01T08:32:37;168.50;;;150.82;;
38226;SDS011;24026;49.446;8.576;2023-02-01T08:34:58;165.05;;;146.07;;
38226;SDS011;24026;49.446;8.576;2023-02-01T08:37:20;162.57;;;144.80;;
38226;SDS011;24026;49.446;8.576;2023-02-01T08:39:40;161.30;;;144.07;;
38226;SDS011;24026;49.446;8.576;2023-02-01T08:42:04;167.15;;;148.90;;
38226;SDS011;24026;49.446;8.576;2023-02-01T08:44:44;174.93;;;152.50;;
38226;SDS011;24026;49.446;8.576;2023-02-01T08:47:05;170.05;;;151.65;;
38226;SDS011;24026;49.446;8.576;2023-02-01T08:49:25;170.65;;;152.00;;
38226;SDS011;24026;49.446;8.576;2023-02-01T08:51:46;193.88;;;171.98;;
38226;SDS011;24026;49.446;8.576;2023-02-01T08:54:07;191.40;;;170.15;;
38226;SDS011;24026;49.446;8.576;2023-02-01T08:56:29;196.20;;;170.02;;
38226;SDS011;24026;49.446;8.576;2023-02-01T08:58:51;196.60;;;169.63;;
38226;SDS011;24026;49.446;8.576;2023-02-01T09:01:13;195.73;;;168.63;;
38226;SDS011;24026;49.446;8.576;2023-02-01T09:03:36;201.48;;;173.73;;
38226;SDS011;24026;49.446;8.576;2023-02-01T09:06:05;208.32;;;180.52;;
38226;SDS011;24026;49.446;8.576;2023-02-01T09:08:32;350.35;;;312.85;;
38226;SDS011;24026;49.446;8.576;2023-02-01T09:10:53;324.65;;;290.90;;
38226;SDS011;24026;49.446;8.576;2023-02-01T09:13:13;296.02;;;264.33;;
38226;SDS011;24026;49.446;8.576;2023-02-01T09:15:34;247.40;;;216.90;;
38226;SDS011;24026;49.446;8.576;2023-02-01T09:17:55;235.32;;;204.10;;
38226;SDS011;24026;49.446;8.576;2023-02-01T09:20:17;236.25;;;203.43;;
38226;SDS011;24026;49.446;8.576;2023-02-01T09:22:44;244.43;;;194.73;;
38226;SDS011;24026;49.446;8.576;2023-02-01T09:25:06;233.35;;;194.90;;
38226;SDS011;24026;49.446;8.576;2023-02-01T09:27:28;235.35;;;193.80;;
38226;SDS011;24026;49.446;8.576;2023-02-01T09:29:50;235.05;;;194.10;;
38226;SDS011;24026;49.446;8.576;2023-02-01T09:32:13;222.77;;;189.98;;
38226;SDS011;24026;49.446;8.576;2023-02-01T09:34:34;234.30;;;191.48;;
38226;SDS011;24026;49.446;8.576;2023-02-01T09:36:55;227.85;;;187.05;;
38226;SDS011;24026;49.446;8.576;2023-02-01T09:39:15;218.38;;;187.45;;
38226;SDS011;24026;49.446;8.576;2023-02-01T09:41:51;210.93;;;184.45;;
38226;SDS011;24026;49.446;8.576;2023-02-01T09:44:35;225.30;;;185.65;;
38226;SDS011;24026;49.446;8.576;2023-02-01T09:47:20;230.13;;;190.95;;
38226;SDS011;24026;49.446;8.576;2023-02-01T09:49:48;230.52;;;192.52;;
38226;SDS011;24026;49.446;8.576;2023-02-01T09:52:27;233.38;;;195.88;;
38226;SDS011;24026;49.446;8.576;2023-02-01T09:55:16;223.15;;;197.60;;
38226;SDS011;24026;49.446;8.576;2023-02-01T09:57:55;232.07;;;202.50;;
38226;SDS011;24026;49.446;8.576;2023-02-01T10:00:25;238.63;;;203.38;;
38226;SDS011;24026;49.446;8.576;2023-02-01T10:02:51;240.25;;;205.82;;
38226;SDS011;24026;49.446;8.576;2023-02-01T10:05:19;259.20;;;218.85;;
38226;SDS011;24026;49.446;8.576;2023-02-01T10:10:35;246.15;;;210.65;;
38226;SDS011;24026;49.446;8.576;2023-02-01T10:18:43;334.35;;;288.13;;
38226;SDS011;24026;49.446;8.576;2023-02-01T10:21:32;260.30;;;225.27;;
38226;SDS011;24026;49.446;8.576;2023-02-01T10:27:16;269.08;;;223.73;;
38226;SDS011;24026;49.446;8.576;2023-02-01T10:29:42;297.85;;;263.73;;
38226;SDS011;24026;49.446;8.576;2023-02-01T10:32:14;289.52;;;257.17;;
38226;SDS011;24026;49.446;8.576;2023-02-01T10:34:40;336.25;;;292.83;;
38226;SDS011;24026;49.446;8.576;2023-02-01T10:37:23;329.38;;;287.17;;
38226;SDS011;24026;49.446;8.576;2023-02-01T10:39:48;301.40;;;257.73;;
38226;SDS011;24026;49.446;8.576;2023-02-01T10:42:16;290.48;;;251.10;;
38226;SDS011;24026;49.446;8.576;2023-02-01T10:44:43;281.20;;;247.95;;
38226;SDS011;24026;49.446;8.576;2023-02-01T10:47:11;339.80;;;302.85;;
38226;SDS011;24026;49.446;8.576;2023-02-01T10:49:33;324.10;;;280.38;;
38226;SDS011;24026;49.446;8.576;2023-02-01T10:52:05;416.85;;;373.45;;
38226;SDS011;24026;49.446;8.576;2023-02-01T10:54:53;348.90;;;304.02;;
38226;SDS011;24026;49.446;8.576;2023-02-01T10:57:22;317.92;;;271.38;;
38226;SDS011;24026;49.446;8.576;2023-02-01T10:59:49;302.58;;;261.90;;
38226;SDS011;24026;49.446;8.576;2023-02-01T11:02:24;305.33;;;259.15;;
38226;SDS011;24026;49.446;8.576;2023-02-01T11:05:08;292.92;;;253.75;;
38226;SDS011;24026;49.446;8.576;2023-02-01T11:07:33;281.77;;;245.90;;
38226;SDS011;24026;49.446;8.576;2023-02-01T11:09:57;278.27;;;241.43;;
38226;SDS011;24026;49.446;8.576;2023-02-01T11:12:31;273.35;;;241.18;;
38226;SDS011;24026;49.446;8.576;2023-02-01T11:17:24;275.60;;;237.52;;
38226;SDS011;24026;49.446;8.576;2023-02-01T11:20:02;275.95;;;237.80;;
38226;SDS011;24026;49.446;8.576;2023-02-01T11:22:26;276.55;;;232.10;;
38226;SDS011;24026;49.446;8.576;2023-02-01T11:24:50;264.83;;;232.43;;
38226;SDS011;24026;49.446;8.576;2023-02-01T11:27:16;255.85;;;226.73;;
38226;SDS011;24026;49.446;8.576;2023-02-01T11:29:42;273.40;;;230.35;;
38226;SDS011;24026;49.446;8.576;2023-02-01T11:32:06;262.02;;;231.52;;
38226;SDS011;24026;49.446;8.576;2023-02-01T11:34:36;262.27;;;226.32;;
38226;SDS011;24026;49.446;8.576;2023-02-01T11:37:03;262.17;;;227.25;;
38226;SDS011;24026;49.446;8.576;2023-02-01T11:39:29;261.42;;;228.07;;
38226;SDS011;24026;49.446;8.576;2023-02-01T11:42:05;263.23;;;227.43;;
38226;SDS011;24026;49.446;8.576;2023-02-01T11:44:45;254.63;;;225.48;;
38226;SDS011;24026;49.446;8.576;2023-02-01T11:49:56;252.73;;;219.40;;
38226;SDS011;24026;49.446;8.576;2023-02-01T11:55:05;259.55;;;220.90;;
38226;SDS011;24026;49.446;8.576;2023-02-01T12:03:38;249.88;;;216.30;;
38226;SDS011;24026;49.446;8.576;2023-02-01T12:15:06;236.82;;;201.63;;
38226;SDS011;24026;49.446;8.576;2023-02-01T12:23:25;252.60;;;224.70;;
38226;SDS011;24026;49.446;8.576;2023-02-01T12:34:23;230.50;;;204.02;;
38226;SDS011;24026;49.446;8.576;2023-02-01T12:40:37;231.70;;;198.65;;
38226;SDS011;24026;49.446;8.576;2023-02-01T12:46:13;234.75;;;205.95;;
38226;SDS011;24026;49.446;8.576;2023-02-01T12:51:19;228.02;;;202.60;;
38226;SDS011;24026;49.446;8.576;2023-02-01T12:53:53;231.63;;;203.90;;
38226;SDS011;24026;49.446;8.576;2023-02-01T12:59:13;238.05;;;210.15;;
38226;SDS011;24026;49.446;8.576;2023-02-01T13:01:48;238.27;;;212.13;;
38226;SDS011;24026;49.446;8.576;2023-02-01T13:04:33;247.60;;;212.70;;
38226;SDS011;24026;49.446;8.576;2023-02-01T13:07:12;244.75;;;212.15;;
38226;SDS011;24026;49.446;8.576;2023-02-01T13:12:13;250.95;;;210.82;;
38226;SDS011;24026;49.446;8.576;2023-02-01T13:14:48;232.95;;;207.77;;
38226;SDS011;24026;49.446;8.576;2023-02-01T13:17:16;238.95;;;201.18;;
38226;SDS011;24026;49.446;8.576;2023-02-01T13:19:45;234.45;;;201.98;;
38226;SDS011;24026;49.446;8.576;2023-02-01T13:22:12;237.25;;;203.43;;
38226;SDS011;24026;49.446;8.576;2023-02-01T13:28:03;219.00;;;193.88;;
38226;SDS011;24026;49.446;8.576;2023-02-01T13:46:56;292.02;;;233.95;;
38226;SDS011;24026;49.446;8.576;2023-02-01T13:49:20;280.77;;;231.70;;
38226;SDS011;24026;49.446;8.576;2023-02-01T13:51:48;284.77;;;233.35;;
38226;SDS011;24026;49.446;8.576;2023-02-01T13:54:28;287.60;;;230.77;;
38226;SDS011;24026;49.446;8.576;2023-02-01T13:56:51;282.85;;;231.07;;
38226;SDS011;24026;49.446;8.576;2023-02-01T14:04:59;273.25;;;224.23;;
38226;SDS011;24026;49.446;8.576;2023-02-01T14:07:21;266.30;;;223.98;;
38226;SDS011;24026;49.446;8.576;2023-02-01T14:09:43;275.67;;;225.25;;
38226;SDS011;24026;49.446;8.576;2023-02-01T14:17:57;257.70;;;214.52;;
38226;SDS011;24026;49.446;8.576;2023-02-01T14:20:57;250.57;;;210.00;;
38226;SDS011;24026;49.446;8.576;2023-02-01T14:23:11;243.70;;;211.05;;
38226;SDS011;24026;49.446;8.576;2023-02-01T14:25:36;250.63;;;215.35;;
38226;SDS011;24026;49.446;8.576;2023-02-01T14:27:57;247.77;;;215.77;;
38226;SDS011;24026;49.446;8.576;2023-02-01T14:30:19;246.85;;;213.57;;
38226;SDS011;24026;49.446;8.576;2023-02-01T14:32:40;246.10;;;212.50;;
38226;SDS011;24026;49.446;8.576;2023-02-01T14:35:16;250.10;;;215.50;;
38226;SDS011;24026;49.446;8.576;2023-02-01T14:37:41;265.30;;;216.18;;
38226;SDS011;24026;49.446;8.576;2023-02-01T14:40:04;269.08;;;217.25;;
38226;SDS011;24026;49.446;8.576;2023-02-01T14:42:45;277.80;;;219.75;;
38226;SDS011;24026;49.446;8.576;2023-02-01T14:47:40;268.15;;;217.95;;
38226;SDS011;24026;49.446;8.576;2023-02-01T14:52:36;274.17;;;220.73;;
38226;SDS011;24026;49.446;8.576;2023-02-01T14:55:06;268.60;;;217.00;;
38226;SDS011;24026;49.446;8.576;2023-02-01T14:57:52;271.35;;;218.23;;
38226;SDS011;24026;49.446;8.576;2023-02-01T15:00:17;271.13;;;215.23;;
38226;SDS011;24026;49.446;8.576;2023-02-01T15:02:39;270.38;;;215.68;;
38226;SDS011;24026;49.446;8.576;2023-02-01T15:05:01;269.80;;;214.57;;
38226;SDS011;24026;49.446;8.576;2023-02-01T15:07:43;262.45;;;212.23;;
38226;SDS011;24026;49.446;8.576;2023-02-01T15:10:08;257.67;;;215.82;;
38226;SDS011;24026;49.446;8.576;2023-02-01T15:12:30;254.75;;;213.15;;
38226;SDS011;24026;49.446;8.576;2023-02-01T15:17:56;250.40;;;210.15;;
38226;SDS011;24026;49.446;8.576;2023-02-01T15:20:24;244.68;;;208.98;;
38226;SDS011;24026;49.446;8.576;2023-02-01T15:22:57;249.32;;;207.10;;
38226;SDS011;24026;49.446;8.576;2023-02-01T15:25:29;251.80;;;205.07;;
38226;SDS011;24026;49.446;8.576;2023-02-01T15:27:51;243.35;;;207.00;;
38226;SDS011;24026;49.446;8.576;2023-02-01T15:30:17;250.77;;;205.05;;
38226;SDS011;24026;49.446;8.576;2023-02-01T15:32:39;238.82;;;200.15;;
38226;SDS011;24026;49.446;8.576;2023-02-01T15:35:00;229.73;;;198.18;;
38226;SDS011;24026;49.446;8.576;2023-02-01T15:37:21;230.80;;;196.82;;
38226;SDS011;24026;49.446;8.576;2023-02-01T15:42:25;224.38;;;195.25;;
38226;SDS011;24026;49.446;8.576;2023-02-01T15:44:45;233.52;;;194.88;;
38226;SDS011;24026;49.446;8.576;2023-02-01T15:47:16;218.95;;;190.38;;
38226;SDS011;24026;49.446;8.576;2023-02-01T15:49:44;218.45;;;191.45;;
38226;SDS011;24026;49.446;8.576;2023-02-01T15:52:21;217.23;;;189.98;;
38226;SDS011;24026;49.446;8.576;2023-02-01T15:54:48;217.77;;;188.70;;
38226;SDS011;24026;49.446;8.576;2023-02-01T15:57:13;215.77;;;185.98;;
38226;SDS011;24026;49.446;8.576;2023-02-01T15:59:43;219.38;;;186.95;;
38226;SDS011;24026;49.446;8.576;2023-02-01T16:02:05;212.40;;;183.13;;
38226;SDS011;24026;49.446;8.576;2023-02-01T16:04:46;211.40;;;180.52;;